Brymbo, United Kingdom
Current Conditions -  °F | °C
As of 6:20 AM on Tuesday 21 Oct 2014 (Local Time) from EGNR Reporting Station
Heavy Rain Heavy Rain  
Wind Chill: 55°   Ceiling: 3500
Heat Index: 55°   Visibility: 6mi
Dew Point: 52°   Wind: 17mph
Humidity: 88%   Direction: 300°WNW
Pressure: 29.41"   Gusts: NA
Location:  53.07°N, 3.07°W
Report Text: EGNR 210520Z 30015KT 270V330 9999 +RA FEW015 BKN035 13/11 Q0996
Loading
Personal Weather Stations






























Interactive Weather Map New forecast layout! Learn more

10-Day Weather Forecast

Advertisements
Track Severe Weather on mobile